sensor_id;sensor_type;location;lat;lon;timestamp;P1;durP1;ratioP1;P2;durP2;ratioP2
18166;SDS011;9208;42.688;23.404;2022-12-24T00:01:05;59.27;;;40.40;;
18166;SDS011;9208;42.688;23.404;2022-12-24T00:03:31;57.47;;;39.47;;
18166;SDS011;9208;42.688;23.404;2022-12-24T00:05:57;56.13;;;38.07;;
18166;SDS011;9208;42.688;23.404;2022-12-24T00:08:23;54.27;;;36.00;;
18166;SDS011;9208;42.688;23.404;2022-12-24T00:10:52;53.23;;;36.10;;
18166;SDS011;9208;42.688;23.404;2022-12-24T00:13:18;48.70;;;35.33;;
18166;SDS011;9208;42.688;23.404;2022-12-24T00:15:44;52.23;;;34.67;;
18166;SDS011;9208;42.688;23.404;2022-12-24T00:18:10;52.33;;;34.50;;
18166;SDS011;9208;42.688;23.404;2022-12-24T00:20:35;53.73;;;34.00;;
18166;SDS011;9208;42.688;23.404;2022-12-24T00:23:00;52.93;;;34.47;;
18166;SDS011;9208;42.688;23.404;2022-12-24T00:25:26;49.70;;;34.43;;
18166;SDS011;9208;42.688;23.404;2022-12-24T00:27:51;51.23;;;34.83;;
18166;SDS011;9208;42.688;23.404;2022-12-24T00:30:17;52.27;;;34.13;;
18166;SDS011;9208;42.688;23.404;2022-12-24T00:32:42;46.27;;;30.83;;
18166;SDS011;9208;42.688;23.404;2022-12-24T00:35:07;40.33;;;27.90;;
18166;SDS011;9208;42.688;23.404;2022-12-24T00:37:33;39.97;;;25.93;;
18166;SDS011;9208;42.688;23.404;2022-12-24T00:40:01;37.87;;;25.90;;
18166;SDS011;9208;42.688;23.404;2022-12-24T00:42:27;38.73;;;25.30;;
18166;SDS011;9208;42.688;23.404;2022-12-24T00:44:52;36.30;;;24.47;;
18166;SDS011;9208;42.688;23.404;2022-12-24T00:47:18;32.67;;;24.13;;
18166;SDS011;9208;42.688;23.404;2022-12-24T00:49:43;35.97;;;23.60;;
18166;SDS011;9208;42.688;23.404;2022-12-24T00:52:09;33.07;;;23.23;;
18166;SDS011;9208;42.688;23.404;2022-12-24T00:54:34;34.87;;;24.63;;
18166;SDS011;9208;42.688;23.404;2022-12-24T00:56:59;35.80;;;24.93;;
18166;SDS011;9208;42.688;23.404;2022-12-24T00:59:25;34.17;;;25.43;;
18166;SDS011;9208;42.688;23.404;2022-12-24T01:01:51;36.83;;;24.70;;
18166;SDS011;9208;42.688;23.404;2022-12-24T01:04:16;34.63;;;23.90;;
18166;SDS011;9208;42.688;23.404;2022-12-24T01:07:00;34.80;;;23.80;;
18166;SDS011;9208;42.688;23.404;2022-12-24T01:09:25;36.77;;;24.20;;
18166;SDS011;9208;42.688;23.404;2022-12-24T01:11:51;34.50;;;25.30;;
18166;SDS011;9208;42.688;23.404;2022-12-24T01:14:16;36.97;;;26.00;;
18166;SDS011;9208;42.688;23.404;2022-12-24T01:16:42;35.10;;;24.97;;
18166;SDS011;9208;42.688;23.404;2022-12-24T01:19:07;37.50;;;25.37;;
18166;SDS011;9208;42.688;23.404;2022-12-24T01:21:33;36.33;;;25.47;;
18166;SDS011;9208;42.688;23.404;2022-12-24T01:23:58;37.30;;;25.17;;
18166;SDS011;9208;42.688;23.404;2022-12-24T01:26:24;39.20;;;26.23;;
18166;SDS011;9208;42.688;23.404;2022-12-24T01:28:49;47.43;;;30.90;;
18166;SDS011;9208;42.688;23.404;2022-12-24T01:31:16;100.03;;;55.50;;
18166;SDS011;9208;42.688;23.404;2022-12-24T01:33:43;91.87;;;51.23;;
18166;SDS011;9208;42.688;23.404;2022-12-24T01:36:10;60.13;;;39.97;;
18166;SDS011;9208;42.688;23.404;2022-12-24T01:38:37;55.37;;;34.83;;
18166;SDS011;9208;42.688;23.404;2022-12-24T01:41:03;47.17;;;32.17;;
18166;SDS011;9208;42.688;23.404;2022-12-24T01:43:48;50.67;;;32.83;;
18166;SDS011;9208;42.688;23.404;2022-12-24T01:48:54;42.70;;;28.50;;
18166;SDS011;9208;42.688;23.404;2022-12-24T01:51:24;45.90;;;29.57;;
18166;SDS011;9208;42.688;23.404;2022-12-24T01:53:59;48.53;;;29.47;;
18166;SDS011;9208;42.688;23.404;2022-12-24T01:56:32;51.50;;;35.30;;
18166;SDS011;9208;42.688;23.404;2022-12-24T01:59:03;56.70;;;35.83;;
18166;SDS011;9208;42.688;23.404;2022-12-24T02:01:30;58.40;;;36.03;;
18166;SDS011;9208;42.688;23.404;2022-12-24T02:03:56;60.63;;;37.50;;
18166;SDS011;9208;42.688;23.404;2022-12-24T02:06:22;60.50;;;37.87;;
18166;SDS011;9208;42.688;23.404;2022-12-24T02:08:49;64.67;;;39.50;;
18166;SDS011;9208;42.688;23.404;2022-12-24T02:11:16;67.00;;;42.20;;
18166;SDS011;9208;42.688;23.404;2022-12-24T02:13:52;63.60;;;39.03;;
18166;SDS011;9208;42.688;23.404;2022-12-24T02:16:33;62.80;;;39.60;;
18166;SDS011;9208;42.688;23.404;2022-12-24T02:29:47;71.53;;;42.60;;
18166;SDS011;9208;42.688;23.404;2022-12-24T02:32:23;79.07;;;48.10;;
18166;SDS011;9208;42.688;23.404;2022-12-24T02:35:02;76.57;;;46.90;;
18166;SDS011;9208;42.688;23.404;2022-12-24T02:37:54;84.20;;;48.67;;
18166;SDS011;9208;42.688;23.404;2022-12-24T02:40:30;80.10;;;47.27;;
18166;SDS011;9208;42.688;23.404;2022-12-24T02:43:03;89.07;;;50.40;;
18166;SDS011;9208;42.688;23.404;2022-12-24T02:45:34;87.90;;;51.87;;
18166;SDS011;9208;42.688;23.404;2022-12-24T02:48:02;93.63;;;53.60;;
18166;SDS011;9208;42.688;23.404;2022-12-24T02:50:29;100.30;;;58.87;;
18166;SDS011;9208;42.688;23.404;2022-12-24T02:52:54;135.23;;;76.23;;
18166;SDS011;9208;42.688;23.404;2022-12-24T02:55:21;141.53;;;81.73;;
18166;SDS011;9208;42.688;23.404;2022-12-24T03:09:17;74.50;;;44.07;;
18166;SDS011;9208;42.688;23.404;2022-12-24T03:11:57;58.93;;;38.53;;
18166;SDS011;9208;42.688;23.404;2022-12-24T03:14:28;64.97;;;40.93;;
18166;SDS011;9208;42.688;23.404;2022-12-24T03:16:55;60.07;;;38.80;;
18166;SDS011;9208;42.688;23.404;2022-12-24T03:19:23;67.63;;;43.50;;
18166;SDS011;9208;42.688;23.404;2022-12-24T03:21:50;67.57;;;41.13;;
18166;SDS011;9208;42.688;23.404;2022-12-24T03:24:18;65.07;;;42.20;;
18166;SDS011;9208;42.688;23.404;2022-12-24T03:26:44;64.10;;;40.53;;
18166;SDS011;9208;42.688;23.404;2022-12-24T03:29:10;63.30;;;40.30;;
18166;SDS011;9208;42.688;23.404;2022-12-24T03:31:43;62.80;;;41.03;;
18166;SDS011;9208;42.688;23.404;2022-12-24T03:34:13;61.37;;;37.97;;
18166;SDS011;9208;42.688;23.404;2022-12-24T03:36:40;56.93;;;37.17;;
18166;SDS011;9208;42.688;23.404;2022-12-24T03:39:06;54.43;;;35.93;;
18166;SDS011;9208;42.688;23.404;2022-12-24T03:41:33;52.33;;;35.10;;
18166;SDS011;9208;42.688;23.404;2022-12-24T03:43:59;55.67;;;33.87;;
18166;SDS011;9208;42.688;23.404;2022-12-24T03:46:25;46.50;;;32.83;;
18166;SDS011;9208;42.688;23.404;2022-12-24T03:48:50;52.87;;;34.13;;
18166;SDS011;9208;42.688;23.404;2022-12-24T03:51:20;54.83;;;33.20;;
18166;SDS011;9208;42.688;23.404;2022-12-24T03:53:56;59.93;;;35.10;;
18166;SDS011;9208;42.688;23.404;2022-12-24T03:56:22;50.43;;;34.87;;
18166;SDS011;9208;42.688;23.404;2022-12-24T03:58:48;55.23;;;35.43;;
18166;SDS011;9208;42.688;23.404;2022-12-24T04:01:14;52.30;;;35.17;;
18166;SDS011;9208;42.688;23.404;2022-12-24T04:03:40;54.50;;;34.73;;
18166;SDS011;9208;42.688;23.404;2022-12-24T04:06:10;44.47;;;30.43;;
18166;SDS011;9208;42.688;23.404;2022-12-24T04:08:41;45.73;;;29.77;;
18166;SDS011;9208;42.688;23.404;2022-12-24T04:11:08;46.40;;;29.73;;
18166;SDS011;9208;42.688;23.404;2022-12-24T04:13:37;43.20;;;28.67;;
18166;SDS011;9208;42.688;23.404;2022-12-24T04:16:04;43.63;;;29.83;;
18166;SDS011;9208;42.688;23.404;2022-12-24T04:18:32;41.53;;;27.80;;
18166;SDS011;9208;42.688;23.404;2022-12-24T04:20:58;40.57;;;27.07;;
18166;SDS011;9208;42.688;23.404;2022-12-24T04:23:23;41.10;;;27.70;;
18166;SDS011;9208;42.688;23.404;2022-12-24T04:25:49;39.37;;;26.87;;
18166;SDS011;9208;42.688;23.404;2022-12-24T04:28:15;39.57;;;27.70;;
18166;SDS011;9208;42.688;23.404;2022-12-24T04:30:41;57.50;;;39.53;;
18166;SDS011;9208;42.688;23.404;2022-12-24T04:33:07;63.70;;;40.40;;
18166;SDS011;9208;42.688;23.404;2022-12-24T04:35:33;69.53;;;41.87;;
18166;SDS011;9208;42.688;23.404;2022-12-24T04:37:58;75.43;;;46.53;;
18166;SDS011;9208;42.688;23.404;2022-12-24T04:40:24;69.70;;;45.77;;
18166;SDS011;9208;42.688;23.404;2022-12-24T04:42:50;68.93;;;45.90;;
18166;SDS011;9208;42.688;23.404;2022-12-24T04:45:16;74.00;;;47.03;;
18166;SDS011;9208;42.688;23.404;2022-12-24T04:47:43;77.73;;;49.93;;
18166;SDS011;9208;42.688;23.404;2022-12-24T04:50:08;81.90;;;51.67;;
18166;SDS011;9208;42.688;23.404;2022-12-24T04:52:34;74.47;;;50.53;;
18166;SDS011;9208;42.688;23.404;2022-12-24T04:55:00;81.33;;;51.13;;
18166;SDS011;9208;42.688;23.404;2022-12-24T04:57:26;81.53;;;48.83;;
18166;SDS011;9208;42.688;23.404;2022-12-24T04:59:51;71.97;;;42.03;;
18166;SDS011;9208;42.688;23.404;2022-12-24T05:02:16;64.00;;;40.33;;
18166;SDS011;9208;42.688;23.404;2022-12-24T05:04:42;59.77;;;38.83;;
18166;SDS011;9208;42.688;23.404;2022-12-24T05:07:08;63.67;;;41.60;;
18166;SDS011;9208;42.688;23.404;2022-12-24T05:09:33;70.20;;;41.07;;
18166;SDS011;9208;42.688;23.404;2022-12-24T05:11:59;79.40;;;46.23;;
18166;SDS011;9208;42.688;23.404;2022-12-24T05:14:24;81.70;;;47.50;;
18166;SDS011;9208;42.688;23.404;2022-12-24T05:16:50;81.50;;;47.50;;
18166;SDS011;9208;42.688;23.404;2022-12-24T05:19:15;77.70;;;47.60;;
18166;SDS011;9208;42.688;23.404;2022-12-24T05:21:40;81.67;;;47.03;;
18166;SDS011;9208;42.688;23.404;2022-12-24T05:24:06;83.40;;;48.80;;
18166;SDS011;9208;42.688;23.404;2022-12-24T05:26:52;79.70;;;47.70;;
18166;SDS011;9208;42.688;23.404;2022-12-24T05:29:19;80.80;;;49.50;;
18166;SDS011;9208;42.688;23.404;2022-12-24T05:31:44;87.63;;;48.87;;
18166;SDS011;9208;42.688;23.404;2022-12-24T05:34:10;82.43;;;47.93;;
18166;SDS011;9208;42.688;23.404;2022-12-24T05:36:37;63.57;;;40.83;;
18166;SDS011;9208;42.688;23.404;2022-12-24T05:39:03;67.87;;;41.80;;
18166;SDS011;9208;42.688;23.404;2022-12-24T05:41:37;68.57;;;39.27;;
18166;SDS011;9208;42.688;23.404;2022-12-24T05:44:02;62.23;;;38.43;;
18166;SDS011;9208;42.688;23.404;2022-12-24T05:46:28;59.23;;;38.00;;
18166;SDS011;9208;42.688;23.404;2022-12-24T05:48:53;56.63;;;37.97;;
18166;SDS011;9208;42.688;23.404;2022-12-24T05:51:19;53.97;;;37.37;;
18166;SDS011;9208;42.688;23.404;2022-12-24T05:53:46;57.67;;;38.13;;
18166;SDS011;9208;42.688;23.404;2022-12-24T05:56:14;56.77;;;37.67;;
18166;SDS011;9208;42.688;23.404;2022-12-24T05:58:43;55.00;;;37.27;;
18166;SDS011;9208;42.688;23.404;2022-12-24T06:01:13;55.70;;;36.30;;
18166;SDS011;9208;42.688;23.404;2022-12-24T06:03:38;51.67;;;34.53;;
18166;SDS011;9208;42.688;23.404;2022-12-24T06:08:31;47.67;;;32.83;;
18166;SDS011;9208;42.688;23.404;2022-12-24T06:10:59;53.90;;;33.17;;
18166;SDS011;9208;42.688;23.404;2022-12-24T06:13:26;57.43;;;33.67;;
18166;SDS011;9208;42.688;23.404;2022-12-24T06:15:55;55.27;;;33.30;;
18166;SDS011;9208;42.688;23.404;2022-12-24T06:18:23;54.67;;;33.10;;
18166;SDS011;9208;42.688;23.404;2022-12-24T06:20:53;51.87;;;32.00;;
18166;SDS011;9208;42.688;23.404;2022-12-24T06:23:23;54.80;;;33.83;;
18166;SDS011;9208;42.688;23.404;2022-12-24T06:25:49;47.60;;;33.37;;
18166;SDS011;9208;42.688;23.404;2022-12-24T06:28:15;60.77;;;33.53;;
18166;SDS011;9208;42.688;23.404;2022-12-24T06:30:45;52.57;;;32.23;;
18166;SDS011;9208;42.688;23.404;2022-12-24T06:33:11;51.40;;;33.30;;
18166;SDS011;9208;42.688;23.404;2022-12-24T06:35:37;43.83;;;30.63;;
18166;SDS011;9208;42.688;23.404;2022-12-24T06:38:02;45.20;;;30.33;;
18166;SDS011;9208;42.688;23.404;2022-12-24T06:40:27;43.70;;;29.67;;
18166;SDS011;9208;42.688;23.404;2022-12-24T06:42:53;42.17;;;28.17;;
18166;SDS011;9208;42.688;23.404;2022-12-24T06:45:18;38.83;;;27.73;;
18166;SDS011;9208;42.688;23.404;2022-12-24T06:47:44;45.43;;;29.00;;
18166;SDS011;9208;42.688;23.404;2022-12-24T06:50:09;45.30;;;30.30;;
18166;SDS011;9208;42.688;23.404;2022-12-24T06:52:35;49.33;;;31.10;;
18166;SDS011;9208;42.688;23.404;2022-12-24T06:55:01;48.23;;;32.67;;
18166;SDS011;9208;42.688;23.404;2022-12-24T06:57:27;46.47;;;30.93;;
18166;SDS011;9208;42.688;23.404;2022-12-24T06:59:53;50.73;;;31.03;;
18166;SDS011;9208;42.688;23.404;2022-12-24T07:02:18;47.57;;;32.10;;
18166;SDS011;9208;42.688;23.404;2022-12-24T07:04:43;55.83;;;31.67;;
18166;SDS011;9208;42.688;23.404;2022-12-24T07:07:09;42.40;;;29.70;;
18166;SDS011;9208;42.688;23.404;2022-12-24T07:09:37;55.57;;;32.03;;
18166;SDS011;9208;42.688;23.404;2022-12-24T07:12:03;53.87;;;32.33;;
18166;SDS011;9208;42.688;23.404;2022-12-24T07:14:28;46.97;;;30.20;;
18166;SDS011;9208;42.688;23.404;2022-12-24T07:16:54;46.43;;;27.57;;
18166;SDS011;9208;42.688;23.404;2022-12-24T07:19:21;42.70;;;27.37;;
18166;SDS011;9208;42.688;23.404;2022-12-24T07:21:46;45.97;;;28.30;;
18166;SDS011;9208;42.688;23.404;2022-12-24T07:24:13;37.53;;;25.90;;
18166;SDS011;9208;42.688;23.404;2022-12-24T07:26:42;47.67;;;25.27;;
18166;SDS011;9208;42.688;23.404;2022-12-24T07:29:07;45.33;;;26.17;;
18166;SDS011;9208;42.688;23.404;2022-12-24T07:31:33;35.17;;;23.00;;
18166;SDS011;9208;42.688;23.404;2022-12-24T07:33:58;37.83;;;23.33;;
18166;SDS011;9208;42.688;23.404;2022-12-24T07:36:24;43.37;;;21.70;;
18166;SDS011;9208;42.688;23.404;2022-12-24T07:38:50;41.93;;;22.27;;
18166;SDS011;9208;42.688;23.404;2022-12-24T07:41:16;31.93;;;20.77;;
18166;SDS011;9208;42.688;23.404;2022-12-24T07:43:42;38.03;;;21.60;;
18166;SDS011;9208;42.688;23.404;2022-12-24T07:46:07;31.37;;;20.73;;
18166;SDS011;9208;42.688;23.404;2022-12-24T07:48:33;32.07;;;21.90;;
18166;SDS011;9208;42.688;23.404;2022-12-24T07:50:58;34.27;;;21.73;;
18166;SDS011;9208;42.688;23.404;2022-12-24T07:53:25;33.23;;;21.47;;
18166;SDS011;9208;42.688;23.404;2022-12-24T07:55:51;32.30;;;21.37;;
18166;SDS011;9208;42.688;23.404;2022-12-24T07:58:17;36.40;;;21.63;;
18166;SDS011;9208;42.688;23.404;2022-12-24T08:00:44;38.87;;;22.93;;
18166;SDS011;9208;42.688;23.404;2022-12-24T08:03:14;34.93;;;22.67;;
18166;SDS011;9208;42.688;23.404;2022-12-24T08:05:44;36.90;;;22.60;;
18166;SDS011;9208;42.688;23.404;2022-12-24T08:08:10;37.00;;;23.33;;
18166;SDS011;9208;42.688;23.404;2022-12-24T08:10:40;34.67;;;22.00;;
18166;SDS011;9208;42.688;23.404;2022-12-24T08:13:06;31.83;;;20.53;;
18166;SDS011;9208;42.688;23.404;2022-12-24T08:15:33;35.27;;;22.13;;
18166;SDS011;9208;42.688;23.404;2022-12-24T08:17:59;42.93;;;26.13;;
18166;SDS011;9208;42.688;23.404;2022-12-24T08:20:24;46.13;;;27.47;;
18166;SDS011;9208;42.688;23.404;2022-12-24T08:22:49;29.30;;;19.33;;
18166;SDS011;9208;42.688;23.404;2022-12-24T08:25:15;31.80;;;19.47;;
18166;SDS011;9208;42.688;23.404;2022-12-24T08:27:40;27.27;;;18.47;;
18166;SDS011;9208;42.688;23.404;2022-12-24T08:30:06;28.27;;;19.17;;
18166;SDS011;9208;42.688;23.404;2022-12-24T08:32:32;28.03;;;20.63;;
18166;SDS011;9208;42.688;23.404;2022-12-24T08:34:58;33.67;;;21.60;;
18166;SDS011;9208;42.688;23.404;2022-12-24T08:37:23;33.67;;;23.00;;
18166;SDS011;9208;42.688;23.404;2022-12-24T08:39:49;36.20;;;25.17;;
18166;SDS011;9208;42.688;23.404;2022-12-24T08:42:15;32.97;;;23.20;;
18166;SDS011;9208;42.688;23.404;2022-12-24T08:44:40;34.20;;;23.57;;
18166;SDS011;9208;42.688;23.404;2022-12-24T08:47:05;34.13;;;24.57;;
18166;SDS011;9208;42.688;23.404;2022-12-24T08:49:31;38.53;;;26.33;;
18166;SDS011;9208;42.688;23.404;2022-12-24T08:51:57;57.60;;;36.47;;
18166;SDS011;9208;42.688;23.404;2022-12-24T08:54:25;68.07;;;41.93;;
18166;SDS011;9208;42.688;23.404;2022-12-24T08:56:50;66.37;;;44.33;;
18166;SDS011;9208;42.688;23.404;2022-12-24T08:59:22;66.53;;;42.50;;
18166;SDS011;9208;42.688;23.404;2022-12-24T09:01:47;58.83;;;36.43;;
18166;SDS011;9208;42.688;23.404;2022-12-24T09:04:13;45.20;;;28.37;;
18166;SDS011;9208;42.688;23.404;2022-12-24T09:06:38;36.50;;;25.37;;
18166;SDS011;9208;42.688;23.404;2022-12-24T09:09:04;41.80;;;26.70;;
18166;SDS011;9208;42.688;23.404;2022-12-24T09:11:30;36.40;;;23.63;;
18166;SDS011;9208;42.688;23.404;2022-12-24T09:13:55;35.47;;;23.80;;
18166;SDS011;9208;42.688;23.404;2022-12-24T09:16:21;39.53;;;24.97;;
18166;SDS011;9208;42.688;23.404;2022-12-24T09:18:47;37.47;;;23.97;;
18166;SDS011;9208;42.688;23.404;2022-12-24T09:21:13;38.23;;;24.17;;
18166;SDS011;9208;42.688;23.404;2022-12-24T09:23:40;32.23;;;23.97;;
18166;SDS011;9208;42.688;23.404;2022-12-24T09:26:08;32.23;;;23.50;;
18166;SDS011;9208;42.688;23.404;2022-12-24T09:28:45;39.70;;;25.30;;
18166;SDS011;9208;42.688;23.404;2022-12-24T09:31:11;43.00;;;27.40;;
18166;SDS011;9208;42.688;23.404;2022-12-24T09:33:38;48.23;;;29.43;;
18166;SDS011;9208;42.688;23.404;2022-12-24T09:36:05;39.93;;;26.37;;
18166;SDS011;9208;42.688;23.404;2022-12-24T09:38:34;40.93;;;25.77;;
18166;SDS011;9208;42.688;23.404;2022-12-24T09:41:02;37.93;;;25.53;;
18166;SDS011;9208;42.688;23.404;2022-12-24T09:43:36;35.50;;;25.27;;
18166;SDS011;9208;42.688;23.404;2022-12-24T09:46:05;38.83;;;27.17;;
18166;SDS011;9208;42.688;23.404;2022-12-24T09:48:45;42.40;;;28.77;;
18166;SDS011;9208;42.688;23.404;2022-12-24T09:56:42;50.03;;;32.67;;
18166;SDS011;9208;42.688;23.404;2022-12-24T09:59:10;46.53;;;31.93;;
18166;SDS011;9208;42.688;23.404;2022-12-24T10:01:38;45.20;;;29.80;;
18166;SDS011;9208;42.688;23.404;2022-12-24T10:04:07;40.67;;;27.50;;
18166;SDS011;9208;42.688;23.404;2022-12-24T10:06:39;37.37;;;24.80;;
18166;SDS011;9208;42.688;23.404;2022-12-24T10:09:14;35.57;;;24.90;;
18166;SDS011;9208;42.688;23.404;2022-12-24T10:12:06;33.90;;;24.70;;
18166;SDS011;9208;42.688;23.404;2022-12-24T10:14:40;31.27;;;21.87;;
18166;SDS011;9208;42.688;23.404;2022-12-24T10:23:18;33.00;;;23.43;;
18166;SDS011;9208;42.688;23.404;2022-12-24T10:25:56;30.57;;;21.70;;
18166;SDS011;9208;42.688;23.404;2022-12-24T10:31:16;35.27;;;24.83;;
18166;SDS011;9208;42.688;23.404;2022-12-24T10:33:48;36.63;;;25.70;;
18166;SDS011;9208;42.688;23.404;2022-12-24T10:36:19;34.33;;;24.57;;
18166;SDS011;9208;42.688;23.404;2022-12-24T10:38:49;34.43;;;23.57;;
18166;SDS011;9208;42.688;23.404;2022-12-24T10:41:16;34.60;;;24.13;;
18166;SDS011;9208;42.688;23.404;2022-12-24T10:43:42;32.90;;;23.60;;
18166;SDS011;9208;42.688;23.404;2022-12-24T10:46:17;36.80;;;24.23;;
18166;SDS011;9208;42.688;23.404;2022-12-24T10:48:50;36.00;;;24.60;;
18166;SDS011;9208;42.688;23.404;2022-12-24T10:56:42;38.03;;;24.77;;
18166;SDS011;9208;42.688;23.404;2022-12-24T11:05:00;32.70;;;22.07;;
18166;SDS011;9208;42.688;23.404;2022-12-24T11:07:28;40.30;;;22.93;;
18166;SDS011;9208;42.688;23.404;2022-12-24T11:10:05;42.60;;;23.43;;
18166;SDS011;9208;42.688;23.404;2022-12-24T11:12:36;32.53;;;21.63;;
18166;SDS011;9208;42.688;23.404;2022-12-24T11:15:16;37.67;;;22.33;;
18166;SDS011;9208;42.688;23.404;2022-12-24T11:17:58;30.87;;;22.03;;
18166;SDS011;9208;42.688;23.404;2022-12-24T11:20:29;29.83;;;23.10;;
18166;SDS011;9208;42.688;23.404;2022-12-24T11:22:56;34.97;;;23.13;;
18166;SDS011;9208;42.688;23.404;2022-12-24T11:25:29;32.70;;;23.87;;
18166;SDS011;9208;42.688;23.404;2022-12-24T11:28:09;30.30;;;23.17;;
18166;SDS011;9208;42.688;23.404;2022-12-24T11:33:29;36.90;;;23.93;;
18166;SDS011;9208;42.688;23.404;2022-12-24T11:35:56;38.30;;;24.30;;
18166;SDS011;9208;42.688;23.404;2022-12-24T11:38:26;36.43;;;25.13;;
18166;SDS011;9208;42.688;23.404;2022-12-24T11:41:11;39.00;;;25.83;;
18166;SDS011;9208;42.688;23.404;2022-12-24T11:43:45;41.60;;;25.27;;
18166;SDS011;9208;42.688;23.404;2022-12-24T11:48:38;30.73;;;24.13;;
18166;SDS011;9208;42.688;23.404;2022-12-24T11:51:05;35.77;;;24.77;;
18166;SDS011;9208;42.688;23.404;2022-12-24T11:53:43;36.13;;;23.83;;
18166;SDS011;9208;42.688;23.404;2022-12-24T11:56:36;31.53;;;21.80;;
18166;SDS011;9208;42.688;23.404;2022-12-24T11:59:18;34.70;;;24.00;;
18166;SDS011;9208;42.688;23.404;2022-12-24T12:04:36;31.13;;;23.13;;
18166;SDS011;9208;42.688;23.404;2022-12-24T12:09:42;32.93;;;23.53;;
18166;SDS011;9208;42.688;23.404;2022-12-24T12:12:17;30.43;;;22.87;;
18166;SDS011;9208;42.688;23.404;2022-12-24T12:14:51;31.07;;;22.77;;
18166;SDS011;9208;42.688;23.404;2022-12-24T12:19:53;32.03;;;23.90;;
18166;SDS011;9208;42.688;23.404;2022-12-24T12:22:27;28.60;;;22.53;;
18166;SDS011;9208;42.688;23.404;2022-12-24T12:25:02;32.57;;;23.43;;
18166;SDS011;9208;42.688;23.404;2022-12-24T12:27:45;32.83;;;23.37;;
18166;SDS011;9208;42.688;23.404;2022-12-24T12:30:15;32.37;;;23.23;;
18166;SDS011;9208;42.688;23.404;2022-12-24T12:32:44;30.17;;;22.67;;
18166;SDS011;9208;42.688;23.404;2022-12-24T12:35:17;30.60;;;22.40;;
18166;SDS011;9208;42.688;23.404;2022-12-24T12:37:53;34.20;;;23.30;;
18166;SDS011;9208;42.688;23.404;2022-12-24T12:40:22;33.23;;;23.03;;
18166;SDS011;9208;42.688;23.404;2022-12-24T12:43:13;29.33;;;22.87;;
18166;SDS011;9208;42.688;23.404;2022-12-24T12:45:52;31.27;;;23.20;;
18166;SDS011;9208;42.688;23.404;2022-12-24T12:51:27;29.97;;;23.07;;
18166;SDS011;9208;42.688;23.404;2022-12-24T12:57:18;35.50;;;24.60;;
18166;SDS011;9208;42.688;23.404;2022-12-24T12:59:53;31.03;;;24.03;;
18166;SDS011;9208;42.688;23.404;2022-12-24T13:02:33;29.30;;;22.57;;
18166;SDS011;9208;42.688;23.404;2022-12-24T13:10:52;34.77;;;24.03;;
18166;SDS011;9208;42.688;23.404;2022-12-24T13:16:39;31.93;;;23.90;;
18166;SDS011;9208;42.688;23.404;2022-12-24T13:19:33;32.53;;;23.67;;
18166;SDS011;9208;42.688;23.404;2022-12-24T13:22:13;32.50;;;24.27;;
18166;SDS011;9208;42.688;23.404;2022-12-24T13:24:49;31.20;;;24.13;;
18166;SDS011;9208;42.688;23.404;2022-12-24T13:27:23;33.03;;;23.50;;
18166;SDS011;9208;42.688;23.404;2022-12-24T13:37:20;34.27;;;24.10;;
18166;SDS011;9208;42.688;23.404;2022-12-24T13:43:14;36.90;;;23.77;;
18166;SDS011;9208;42.688;23.404;2022-12-24T13:48:00;36.93;;;23.63;;
18166;SDS011;9208;42.688;23.404;2022-12-24T13:51:17;40.20;;;24.50;;
18166;SDS011;9208;42.688;23.404;2022-12-24T13:58:43;34.10;;;22.27;;
18166;SDS011;9208;42.688;23.404;2022-12-24T14:01:13;34.43;;;24.87;;
18166;SDS011;9208;42.688;23.404;2022-12-24T14:03:55;37.17;;;24.77;;
18166;SDS011;9208;42.688;23.404;2022-12-24T14:08:55;51.03;;;28.03;;
18166;SDS011;9208;42.688;23.404;2022-12-24T14:11:29;37.83;;;24.97;;
18166;SDS011;9208;42.688;23.404;2022-12-24T14:17:13;42.10;;;29.87;;
18166;SDS011;9208;42.688;23.404;2022-12-24T14:19:43;43.67;;;30.57;;
18166;SDS011;9208;42.688;23.404;2022-12-24T14:24:55;51.07;;;30.13;;
18166;SDS011;9208;42.688;23.404;2022-12-24T14:30:22;47.93;;;31.70;;
18166;SDS011;9208;42.688;23.404;2022-12-24T14:32:50;49.07;;;32.50;;
18166;SDS011;9208;42.688;23.404;2022-12-24T14:35:18;50.40;;;31.27;;
18166;SDS011;9208;42.688;23.404;2022-12-24T14:37:46;50.80;;;32.33;;
18166;SDS011;9208;42.688;23.404;2022-12-24T14:40:24;52.40;;;33.40;;
18166;SDS011;9208;42.688;23.404;2022-12-24T14:45:53;57.13;;;33.93;;
18166;SDS011;9208;42.688;23.404;2022-12-24T14:48:24;54.73;;;33.30;;
18166;SDS011;9208;42.688;23.404;2022-12-24T14:59:45;40.53;;;31.47;;
18166;SDS011;9208;42.688;23.404;2022-12-24T15:05:01;43.77;;;30.90;;
18166;SDS011;9208;42.688;23.404;2022-12-24T15:07:55;47.80;;;32.93;;
18166;SDS011;9208;42.688;23.404;2022-12-24T15:10:26;44.73;;;31.87;;
18166;SDS011;9208;42.688;23.404;2022-12-24T15:12:55;43.00;;;31.37;;
18166;SDS011;9208;42.688;23.404;2022-12-24T15:15:22;43.17;;;31.73;;
18166;SDS011;9208;42.688;23.404;2022-12-24T15:17:48;48.13;;;31.93;;
18166;SDS011;9208;42.688;23.404;2022-12-24T15:20:19;42.87;;;30.30;;
18166;SDS011;9208;42.688;23.404;2022-12-24T15:22:49;44.33;;;31.13;;
18166;SDS011;9208;42.688;23.404;2022-12-24T15:25:19;40.07;;;29.80;;
18166;SDS011;9208;42.688;23.404;2022-12-24T15:27:47;40.63;;;29.77;;
18166;SDS011;9208;42.688;23.404;2022-12-24T15:30:14;47.00;;;29.40;;
18166;SDS011;9208;42.688;23.404;2022-12-24T15:32:42;38.83;;;29.37;;
18166;SDS011;9208;42.688;23.404;2022-12-24T15:37:58;39.03;;;28.90;;
18166;SDS011;9208;42.688;23.404;2022-12-24T15:40:25;35.70;;;27.87;;
18166;SDS011;9208;42.688;23.404;2022-12-24T15:42:52;35.73;;;26.97;;
18166;SDS011;9208;42.688;23.404;2022-12-24T15:45:19;39.70;;;27.73;;
18166;SDS011;9208;42.688;23.404;2022-12-24T15:50:27;34.87;;;26.83;;
18166;SDS011;9208;42.688;23.404;2022-12-24T15:53:10;39.77;;;26.20;;
18166;SDS011;9208;42.688;23.404;2022-12-24T15:58:15;39.90;;;27.90;;
18166;SDS011;9208;42.688;23.404;2022-12-24T16:00:42;39.10;;;27.73;;
18166;SDS011;9208;42.688;23.404;2022-12-24T16:03:09;35.73;;;26.87;;
18166;SDS011;9208;42.688;23.404;2022-12-24T16:05:40;36.13;;;27.90;;
18166;SDS011;9208;42.688;23.404;2022-12-24T16:10:41;35.00;;;26.30;;
18166;SDS011;9208;42.688;23.404;2022-12-24T16:13:28;41.10;;;26.83;;
18166;SDS011;9208;42.688;23.404;2022-12-24T16:16:08;36.60;;;25.77;;
18166;SDS011;9208;42.688;23.404;2022-12-24T16:21:22;38.17;;;26.43;;
18166;SDS011;9208;42.688;23.404;2022-12-24T16:23:51;38.40;;;27.23;;
18166;SDS011;9208;42.688;23.404;2022-12-24T16:26:19;35.03;;;27.20;;
18166;SDS011;9208;42.688;23.404;2022-12-24T16:28:45;36.47;;;26.07;;
18166;SDS011;9208;42.688;23.404;2022-12-24T16:31:17;33.20;;;25.87;;
18166;SDS011;9208;42.688;23.404;2022-12-24T16:33:52;35.63;;;25.87;;
18166;SDS011;9208;42.688;23.404;2022-12-24T16:36:21;36.70;;;27.37;;
18166;SDS011;9208;42.688;23.404;2022-12-24T16:38:47;37.40;;;27.03;;
18166;SDS011;9208;42.688;23.404;2022-12-24T16:41:31;39.50;;;27.90;;
18166;SDS011;9208;42.688;23.404;2022-12-24T16:44:17;41.63;;;29.07;;
18166;SDS011;9208;42.688;23.404;2022-12-24T16:46:42;37.60;;;28.43;;
18166;SDS011;9208;42.688;23.404;2022-12-24T16:49:11;41.77;;;29.53;;
18166;SDS011;9208;42.688;23.404;2022-12-24T16:51:41;38.20;;;27.53;;